Time;durP1;ratioP1;P1;durP2;ratioP2;P2;SDS_P1;SDS_P2;PMS_P1;PMS_P2;Temp;Humidity;BMP_temperature;BMP_pressure;BME280_temperature;BME280_humidity;BME280_pressure;Samples;Min_cycle;Max_cycle;Signal;HPM_P1;HPM_P2
2023/01/01 00:00:47;;;;;;;;;;;;;;;;;;6209140;23;19912;-74
2023/01/01 00:03:12;;;;;;;;;;;;;;;;;;6209021;23;19922;-74
2023/01/01 00:05:38;;;;;;;;;;;;;;;;;;6182516;23;19998;-74
2023/01/01 00:08:04;;;;;;;;;;;;;;;;;;6208425;23;19927;-73
2023/01/01 00:10:29;;;;;;;;;;;;;;;;;;6209168;23;19908;-74
2023/01/01 00:12:55;;;;;;;;;;;;;;;;;;6208751;23;20375;-74
2023/01/01 00:15:21;;;;;;;;;;;;;;;;;;6209021;23;19912;-73
2023/01/01 00:17:46;;;;;;;;;;;;;;;;;;6208473;23;19918;-74
2023/01/01 00:20:13;;;;;;;;;;;;;;;;;;6208559;23;19987;-73
2023/01/01 00:22:38;;;;;;;;;;;;;;;;;;6208936;23;19916;-74
2023/01/01 00:25:04;;;;;;;;;;;;;;;;;;6208761;23;19974;-73
2023/01/01 00:27:30;;;;;;;;;;;;;;;;;;6208368;23;20348;-74
2023/01/01 00:29:55;;;;;;;;;;;;;;;;;;6208500;23;20459;-73
2023/01/01 00:32:21;;;;;;;;;;;;;;;;;;6182422;23;19919;-73
2023/01/01 00:34:47;;;;;;;;;;;;;;;;;;6208813;23;19911;-73
2023/01/01 00:37:13;;;;;;;;;;;;;;;;;;6208288;23;19922;-74
2023/01/01 00:39:39;;;;;;;;;;;;;;;;;;6208964;23;19911;-74
2023/01/01 00:42:05;;;;;;;;;;;;;;;;;;6208583;23;20325;-73
2023/01/01 00:44:30;;;;;;;;;;;;;;;;;;6209229;23;19919;-74
2023/01/01 00:46:56;;;;;;;;;;;;;;;;;;6210379;23;19922;-74
2023/01/01 00:49:21;;;;;;;;;;;;;;;;;;6210401;23;19911;-74
2023/01/01 00:51:47;;;;;;;;;;;;;;;;;;6210539;23;19912;-73
2023/01/01 00:54:13;;;;;;;;;;;;;;;;;;6210674;23;19916;-73
2023/01/01 00:56:39;;;;;;;;;;;;;;;;;;6210643;23;20049;-74
2023/01/01 00:59:04;;;;;;;;;;;;;;;;;;6210030;23;20303;-73
2023/01/01 01:01:30;;;;;;;;;;;;;;;;;;6210755;23;20035;-74
2023/01/01 01:03:56;;;;;;;;;;;;;;;;;;6210865;23;19911;-74
2023/01/01 01:06:21;;;;;;;;;;;;;;;;;;6184195;23;20346;-74
2023/01/01 01:08:47;;;;;;;;;;;;;;;;;;6210285;23;20350;-73
2023/01/01 01:11:13;;;;;;;;;;;;;;;;;;6210370;23;20452;-74
2023/01/01 01:13:38;;;;;;;;;;;;;;;;;;6183972;23;19915;-74
2023/01/01 01:16:04;;;;;;;;;;;;;;;;;;6210276;23;20024;-72
2023/01/01 01:18:30;;;;;;;;;;;;;;;;;;6210066;23;19920;-73
2023/01/01 01:20:55;;;;;;;;;;;;;;;;;;6210394;23;20467;-74
2023/01/01 01:23:21;;;;;;;;;;;;;;;;;;6210614;23;20260;-73
2023/01/01 01:25:47;;;;;;;;;;;;;;;;;;6183719;23;19912;-75
2023/01/01 01:28:13;;;;;;;;;;;;;;;;;;6210155;23;19930;-74
2023/01/01 01:30:38;;;;;;;;;;;;;;;;;;6210801;23;19912;-74
2023/01/01 01:33:04;;;;;;;;;;;;;;;;;;6210853;23;19918;-74
2023/01/01 01:35:30;;;;;;;;;;;;;;;;;;6211205;23;19918;-74
2023/01/01 01:37:55;;;;;;;;;;;;;;;;;;6216867;23;20261;-74
2023/01/01 01:40:21;;;;;;;;;;;;;;;;;;6218197;23;20261;-73
2023/01/01 01:42:46;;;;;;;;;;;;;;;;;;6188375;23;20268;-73
2023/01/01 01:45:12;;;;;;;;;;;;;;;;;;6214196;23;19912;-72
2023/01/01 01:47:38;;;;;;;;;;;;;;;;;;6210910;23;20407;-74
2023/01/01 01:50:04;;;;;;;;;;;;;;;;;;6209789;23;19912;-73
2023/01/01 01:52:29;;;;;;;;;;;;;;;;;;6210675;23;19908;-74
2023/01/01 01:54:55;;;;;;;;;;;;;;;;;;6183460;23;19961;-74
2023/01/01 01:57:21;;;;;;;;;;;;;;;;;;6210150;23;19975;-74
2023/01/01 01:59:46;;;;;;;;;;;;;;;;;;6209929;23;20305;-74
2023/01/01 02:02:12;;;;;;;;;;;;;;;;;;6210045;23;19912;-74
2023/01/01 02:04:38;;;;;;;;;;;;;;;;;;6210271;23;19947;-73
2023/01/01 02:07:03;;;;;;;;;;;;;;;;;;6209833;23;19912;-73
2023/01/01 02:09:29;;;;;;;;;;;;;;;;;;6209864;23;19939;-74
2023/01/01 02:11:55;;;;;;;;;;;;;;;;;;6209780;23;19916;-73
2023/01/01 02:14:20;;;;;;;;;;;;;;;;;;6210120;23;20674;-74
2023/01/01 02:16:46;;;;;;;;;;;;;;;;;;6210030;23;19912;-74
2023/01/01 02:19:12;;;;;;;;;;;;;;;;;;6209037;23;19927;-74
2023/01/01 02:21:38;;;;;;;;;;;;;;;;;;6183024;23;19911;-74
2023/01/01 02:24:05;;;;;;;;;;;;;;;;;;6183021;23;19955;-74
2023/01/01 02:26:37;;;;;;;;;;;;;;;;;;6209665;23;20310;-74
2023/01/01 02:29:02;;;;;;;;;;;;;;;;;;6209116;23;19924;-73
2023/01/01 02:31:28;;;;;;;;;;;;;;;;;;6209412;23;20269;-74
2023/01/01 02:33:54;;;;;;;;;;;;;;;;;;6209658;23;19912;-73
2023/01/01 02:36:19;;;;;;;;;;;;;;;;;;6182895;23;20246;-74
2023/01/01 02:38:45;;;;;;;;;;;;;;;;;;6209836;23;20055;-73
2023/01/01 02:41:11;;;;;;;;;;;;;;;;;;6208862;23;19911;-73
2023/01/01 02:43:36;;;;;;;;;;;;;;;;;;6209868;23;20269;-74
2023/01/01 02:46:02;;;;;;;;;;;;;;;;;;6209867;23;19938;-73
2023/01/01 02:48:27;;;;;;;;;;;;;;;;;;6210411;23;20322;-75
2023/01/01 02:50:53;;;;;;;;;;;;;;;;;;6209904;23;19935;-73
2023/01/01 02:53:19;;;;;;;;;;;;;;;;;;6209727;23;19972;-74
2023/01/01 02:55:44;;;;;;;;;;;;;;;;;;6209774;23;19908;-75
2023/01/01 03:00:54;;;;;;;;;;;;;;;;;;6183094;23;20341;-75
2023/01/01 03:03:20;;;;;;;;;;;;;;;;;;6187614;23;19919;-75
2023/01/01 03:08:30;;;;;;;;;;;;;;;;;;6209412;23;19920;-74
2023/01/01 03:10:56;;;;;;;;;;;;;;;;;;6182277;23;20053;-75
2023/01/01 03:13:21;;;;;;;;;;;;;;;;;;6209662;23;19947;-76
2023/01/01 03:15:47;;;;;;;;;;;;;;;;;;6209590;23;19908;-75
2023/01/01 03:18:12;;;;;;;;;;;;;;;;;;6208925;23;19927;-75
2023/01/01 03:20:38;;;;;;;;;;;;;;;;;;6157862;23;19934;-76
2023/01/01 03:23:04;;;;;;;;;;;;;;;;;;6209026;23;19939;-76
2023/01/01 03:25:29;;;;;;;;;;;;;;;;;;6209402;23;19912;-76
2023/01/01 03:27:56;;;;;;;;;;;;;;;;;;6209033;23;19920;-77
2023/01/01 03:30:22;;;;;;;;;;;;;;;;;;6208863;23;19911;-76
2023/01/01 03:33:00;;;;;;;;;;;;;;;;;;6182823;23;19923;-74
2023/01/01 03:35:26;;;;;;;;;;;;;;;;;;6209161;23;20172;-75
2023/01/01 03:37:51;;;;;;;;;;;;;;;;;;6209238;23;20325;-75
2023/01/01 03:40:17;;;;;;;;;;;;;;;;;;6181950;23;19915;-74
2023/01/01 03:42:44;;;;;;;;;;;;;;;;;;6209320;23;19912;-73
2023/01/01 03:45:09;;;;;;;;;;;;;;;;;;6209564;23;20300;-74
2023/01/01 03:47:35;;;;;;;;;;;;;;;;;;6209237;23;19932;-74
2023/01/01 03:50:01;;;;;;;;;;;;;;;;;;6209059;23;20337;-73
2023/01/01 03:52:28;;;;;;;;;;;;;;;;;;6208578;23;19919;-73
2023/01/01 03:54:53;;;;;;;;;;;;;;;;;;6209054;23;19912;-74
2023/01/01 03:57:20;;;;;;;;;;;;;;;;;;6208863;23;19943;-72
2023/01/01 03:59:46;;;;;;;;;;;;;;;;;;6209000;23;19919;-74
2023/01/01 04:02:12;;;;;;;;;;;;;;;;;;6208247;23;19974;-74
2023/01/01 04:04:37;;;;;;;;;;;;;;;;;;6209208;23;19916;-74
2023/01/01 04:07:03;;;;;;;;;;;;;;;;;;6208727;23;20469;-72
2023/01/01 04:09:28;;;;;;;;;;;;;;;;;;6209136;23;19919;-73
2023/01/01 04:12:00;;;;;;;;;;;;;;;;;;6182106;23;19962;-72
2023/01/01 04:14:27;;;;;;;;;;;;;;;;;;6209192;23;19912;-73
2023/01/01 04:16:52;;;;;;;;;;;;;;;;;;6209050;23;19919;-73
2023/01/01 04:19:18;;;;;;;;;;;;;;;;;;6182940;23;19998;-72
2023/01/01 04:21:44;;;;;;;;;;;;;;;;;;6184095;23;19912;-74
2023/01/01 04:24:10;;;;;;;;;;;;;;;;;;6159228;23;19990;-72
2023/01/01 04:26:35;;;;;;;;;;;;;;;;;;6210801;23;19943;-73
2023/01/01 04:29:01;;;;;;;;;;;;;;;;;;6210568;23;19959;-72
2023/01/01 04:31:27;;;;;;;;;;;;;;;;;;6184022;23;19991;-72
2023/01/01 04:33:52;;;;;;;;;;;;;;;;;;6210905;23;19916;-72
2023/01/01 04:36:18;;;;;;;;;;;;;;;;;;6210556;23;19912;-72
2023/01/01 04:38:44;;;;;;;;;;;;;;;;;;6211114;23;19912;-72
2023/01/01 04:41:09;;;;;;;;;;;;;;;;;;6210496;23;19912;-73
2023/01/01 04:43:35;;;;;;;;;;;;;;;;;;6210579;23;19939;-73
2023/01/01 04:46:01;;;;;;;;;;;;;;;;;;6210424;23;20086;-73
2023/01/01 04:48:27;;;;;;;;;;;;;;;;;;6210791;23;19966;-75
2023/01/01 04:50:52;;;;;;;;;;;;;;;;;;6210961;23;20146;-73
2023/01/01 04:53:18;;;;;;;;;;;;;;;;;;6210457;23;19908;-73
2023/01/01 04:55:44;;;;;;;;;;;;;;;;;;6210916;23;19991;-71
2023/01/01 04:58:09;;;;;;;;;;;;;;;;;;6210792;23;19912;-75
2023/01/01 05:00:35;;;;;;;;;;;;;;;;;;6210906;23;19912;-74
2023/01/01 05:03:01;;;;;;;;;;;;;;;;;;6210074;23;20352;-74
2023/01/01 05:05:26;;;;;;;;;;;;;;;;;;6210770;23;19991;-73
2023/01/01 05:07:52;;;;;;;;;;;;;;;;;;6159091;23;19919;-73
2023/01/01 05:10:18;;;;;;;;;;;;;;;;;;6210634;23;19938;-73
2023/01/01 05:12:43;;;;;;;;;;;;;;;;;;6183867;23;19911;-73
2023/01/01 05:15:09;;;;;;;;;;;;;;;;;;6184153;23;19912;-74
2023/01/01 05:17:35;;;;;;;;;;;;;;;;;;6210688;23;19912;-73
2023/01/01 05:20:02;;;;;;;;;;;;;;;;;;6184296;23;20050;-73
2023/01/01 05:22:28;;;;;;;;;;;;;;;;;;6183812;23;20027;-73
2023/01/01 05:24:54;;;;;;;;;;;;;;;;;;6210451;23;20320;-73
2023/01/01 05:27:20;;;;;;;;;;;;;;;;;;6209998;23;19920;-73
2023/01/01 05:29:45;;;;;;;;;;;;;;;;;;6210738;23;19970;-72
2023/01/01 05:32:11;;;;;;;;;;;;;;;;;;6209845;23;19915;-72
2023/01/01 05:34:37;;;;;;;;;;;;;;;;;;6183824;23;19998;-72
2023/01/01 05:37:02;;;;;;;;;;;;;;;;;;6210271;23;20115;-73
2023/01/01 05:39:28;;;;;;;;;;;;;;;;;;6184106;23;19912;-72
2023/01/01 05:41:54;;;;;;;;;;;;;;;;;;6210385;23;19974;-72
2023/01/01 05:44:19;;;;;;;;;;;;;;;;;;6183450;23;19947;-73
2023/01/01 05:46:45;;;;;;;;;;;;;;;;;;6210328;23;19943;-73
2023/01/01 05:49:11;;;;;;;;;;;;;;;;;;6183526;23;19916;-73
2023/01/01 05:51:37;;;;;;;;;;;;;;;;;;6210465;23;19911;-72
2023/01/01 05:54:02;;;;;;;;;;;;;;;;;;6183367;23;19918;-73
2023/01/01 05:56:28;;;;;;;;;;;;;;;;;;6188004;23;19912;-73
2023/01/01 05:58:54;;;;;;;;;;;;;;;;;;6214198;23;19934;-74
2023/01/01 06:01:19;;;;;;;;;;;;;;;;;;6210377;23;20264;-74
2023/01/01 06:03:49;;;;;;;;;;;;;;;;;;6184045;23;20304;-73
2023/01/01 06:06:15;;;;;;;;;;;;;;;;;;6210009;23;20263;-74
2023/01/01 06:08:40;;;;;;;;;;;;;;;;;;6210541;23;19966;-73
2023/01/01 06:11:06;;;;;;;;;;;;;;;;;;6210017;23;19912;-73
2023/01/01 06:13:32;;;;;;;;;;;;;;;;;;6210152;23;19923;-72
2023/01/01 06:15:57;;;;;;;;;;;;;;;;;;6209677;23;19912;-73
2023/01/01 06:18:23;;;;;;;;;;;;;;;;;;6209871;23;19923;-74
2023/01/01 06:20:49;;;;;;;;;;;;;;;;;;6210060;23;19946;-74
2023/01/01 06:23:15;;;;;;;;;;;;;;;;;;6182918;23;19958;-74
2023/01/01 06:25:41;;;;;;;;;;;;;;;;;;6209813;23;19912;-73
2023/01/01 06:28:06;;;;;;;;;;;;;;;;;;6182101;23;19920;-75
2023/01/01 06:30:33;;;;;;;;;;;;;;;;;;6209545;23;19911;-76
2023/01/01 06:32:58;;;;;;;;;;;;;;;;;;6210072;23;19912;-75
2023/01/01 06:35:24;;;;;;;;;;;;;;;;;;6209231;23;20356;-76
2023/01/01 06:37:50;;;;;;;;;;;;;;;;;;6209719;23;19912;-76
2023/01/01 06:40:15;;;;;;;;;;;;;;;;;;6182835;23;19912;-76
2023/01/01 06:42:41;;;;;;;;;;;;;;;;;;6182778;23;19918;-74
2023/01/01 06:45:07;;;;;;;;;;;;;;;;;;6209431;23;19990;-73
2023/01/01 06:47:32;;;;;;;;;;;;;;;;;;6210003;23;20355;-75
2023/01/01 06:49:58;;;;;;;;;;;;;;;;;;6209802;23;19912;-74
2023/01/01 06:52:24;;;;;;;;;;;;;;;;;;6209916;23;20019;-75
2023/01/01 06:54:49;;;;;;;;;;;;;;;;;;6209590;23;19911;-74
2023/01/01 06:57:16;;;;;;;;;;;;;;;;;;6210080;23;19912;-75
2023/01/01 06:59:42;;;;;;;;;;;;;;;;;;6185183;23;19934;-77
2023/01/01 07:02:07;;;;;;;;;;;;;;;;;;6199019;23;20011;-82
2023/01/01 07:04:33;;;;;;;;;;;;;;;;;;6211200;23;19908;-85
2023/01/01 07:07:00;;;;;;;;;;;;;;;;;;6236145;23;19919;-84
2023/01/01 07:09:25;;;;;;;;;;;;;;;;;;6235548;23;19912;-80
2023/01/01 07:11:51;;;;;;;;;;;;;;;;;;6232358;23;19908;-85
2023/01/01 07:14:17;;;;;;;;;;;;;;;;;;6233359;23;19942;-85
2023/01/01 07:16:42;;;;;;;;;;;;;;;;;;6226593;23;19919;-86
2023/01/01 07:19:08;;;;;;;;;;;;;;;;;;6203702;23;19927;-86
2023/01/01 07:21:34;;;;;;;;;;;;;;;;;;6236864;23;19923;-88
2023/01/01 07:24:00;;;;;;;;;;;;;;;;;;6237023;23;19908;-88
2023/01/01 07:26:25;;;;;;;;;;;;;;;;;;6202850;23;20431;-85
2023/01/01 07:28:51;;;;;;;;;;;;;;;;;;6227461;23;19920;-86
2023/01/01 07:31:17;;;;;;;;;;;;;;;;;;6202532;23;19959;-87
2023/01/01 07:33:43;;;;;;;;;;;;;;;;;;6228845;23;20319;-83
2023/01/01 07:36:08;;;;;;;;;;;;;;;;;;6217441;23;19911;-81
2023/01/01 07:38:34;;;;;;;;;;;;;;;;;;6188909;23;19935;-82
2023/01/01 07:41:00;;;;;;;;;;;;;;;;;;6212864;23;19912;-81
2023/01/01 07:43:26;;;;;;;;;;;;;;;;;;6220060;23;19934;-84
2023/01/01 07:45:51;;;;;;;;;;;;;;;;;;6213795;23;19916;-85
2023/01/01 07:48:17;;;;;;;;;;;;;;;;;;6165095;23;19974;-81
2023/01/01 07:50:43;;;;;;;;;;;;;;;;;;6238158;23;19978;-87
2023/01/01 07:53:08;;;;;;;;;;;;;;;;;;6183671;23;19912;-85
2023/01/01 07:55:34;;;;;;;;;;;;;;;;;;6240471;23;19896;-87
2023/01/01 07:58:00;;;;;;;;;;;;;;;;;;6239898;23;19974;-82
2023/01/01 08:00:25;;;;;;;;;;;;;;;;;;6241935;23;20202;-89
2023/01/01 08:02:51;;;;;;;;;;;;;;;;;;6244327;23;19946;-88
2023/01/01 08:05:17;;;;;;;;;;;;;;;;;;6244964;23;19932;-89
2023/01/01 08:07:43;;;;;;;;;;;;;;;;;;6266110;22;19907;-91
2023/01/01 08:10:08;;;;;;;;;;;;;;;;;;6272152;23;19916;-87
2023/01/01 08:12:34;;;;;;;;;;;;;;;;;;6265313;23;19922;-85
2023/01/01 08:15:00;;;;;;;;;;;;;;;;;;6264794;23;19911;-84
2023/01/01 08:17:25;;;;;;;;;;;;;;;;;;6237057;23;19911;-84
2023/01/01 08:19:51;;;;;;;;;;;;;;;;;;6271671;23;19911;-85
2023/01/01 08:22:17;;;;;;;;;;;;;;;;;;6267634;23;19911;-85
2023/01/01 08:24:42;;;;;;;;;;;;;;;;;;6267312;23;19911;-83
2023/01/01 08:27:08;;;;;;;;;;;;;;;;;;6237557;23;19911;-84
2023/01/01 08:29:34;;;;;;;;;;;;;;;;;;6209949;23;19916;-85
2023/01/01 08:31:59;;;;;;;;;;;;;;;;;;6262201;23;19912;-86
2023/01/01 08:34:26;;;;;;;;;;;;;;;;;;6208350;23;20151;-86
2023/01/01 08:36:51;;;;;;;;;;;;;;;;;;6265004;23;19912;-84
2023/01/01 08:39:17;;;;;;;;;;;;;;;;;;6268739;23;19913;-85
2023/01/01 08:41:43;;;;;;;;;;;;;;;;;;6271430;23;19919;-84
2023/01/01 08:44:08;;;;;;;;;;;;;;;;;;6269193;23;19907;-84
2023/01/01 08:46:34;;;;;;;;;;;;;;;;;;6261236;23;19994;-83
2023/01/01 08:48:59;;;;;;;;;;;;;;;;;;6257898;23;20270;-83
2023/01/01 08:51:25;;;;;;;;;;;;;;;;;;6255688;23;20305;-81
2023/01/01 08:53:51;;;;;;;;;;;;;;;;;;6254681;23;19911;-81
2023/01/01 08:56:16;;;;;;;;;;;;;;;;;;6264099;23;19911;-82
2023/01/01 08:58:42;;;;;;;;;;;;;;;;;;6266493;23;19938;-82
2023/01/01 09:01:08;;;;;;;;;;;;;;;;;;6262949;23;19915;-82
2023/01/01 09:03:33;;;;;;;;;;;;;;;;;;6257896;23;20018;-82
2023/01/01 09:05:59;;;;;;;;;;;;;;;;;;6252781;23;19931;-82
2023/01/01 09:08:25;;;;;;;;;;;;;;;;;;6253170;23;19920;-82
2023/01/01 09:10:50;;;;;;;;;;;;;;;;;;6225718;23;19942;-80
2023/01/01 09:13:16;;;;;;;;;;;;;;;;;;6223804;23;19912;-82
2023/01/01 09:15:42;;;;;;;;;;;;;;;;;;6251462;23;19911;-83
2023/01/01 09:18:08;;;;;;;;;;;;;;;;;;6257125;23;20345;-82
2023/01/01 09:20:33;;;;;;;;;;;;;;;;;;6230603;23;19915;-85
2023/01/01 09:22:59;;;;;;;;;;;;;;;;;;6230693;23;19922;-83
2023/01/01 09:25:25;;;;;;;;;;;;;;;;;;6228997;23;19911;-83
2023/01/01 09:27:50;;;;;;;;;;;;;;;;;;6228019;23;19924;-83
2023/01/01 09:30:16;;;;;;;;;;;;;;;;;;6229347;23;19915;-82
2023/01/01 09:32:42;;;;;;;;;;;;;;;;;;6255752;23;19935;-83
2023/01/01 09:35:07;;;;;;;;;;;;;;;;;;6255233;23;19922;-82
2023/01/01 09:37:33;;;;;;;;;;;;;;;;;;6261115;23;19912;-84
2023/01/01 09:39:59;;;;;;;;;;;;;;;;;;6270761;23;20324;-84
2023/01/01 09:42:24;;;;;;;;;;;;;;;;;;6271406;23;19912;-86
2023/01/01 09:44:50;;;;;;;;;;;;;;;;;;6271865;22;19922;-84
2023/01/01 09:47:16;;;;;;;;;;;;;;;;;;6233171;23;19934;-83
2023/01/01 09:49:42;;;;;;;;;;;;;;;;;;6262796;23;19911;-83
2023/01/01 09:52:07;;;;;;;;;;;;;;;;;;6264554;23;19904;-82
2023/01/01 09:54:33;;;;;;;;;;;;;;;;;;6242758;23;19896;-83
2023/01/01 09:56:59;;;;;;;;;;;;;;;;;;6260090;23;19911;-84
2023/01/01 09:59:25;;;;;;;;;;;;;;;;;;6256042;23;20360;-84
2023/01/01 10:01:50;;;;;;;;;;;;;;;;;;6223993;23;19943;-82
2023/01/01 10:04:16;;;;;;;;;;;;;;;;;;6229943;23;19911;-83
2023/01/01 10:06:42;;;;;;;;;;;;;;;;;;6261800;23;19950;-84
2023/01/01 10:09:07;;;;;;;;;;;;;;;;;;6230010;23;19924;-82
2023/01/01 10:11:33;;;;;;;;;;;;;;;;;;6228834;23;19915;-84
2023/01/01 10:13:59;;;;;;;;;;;;;;;;;;6258642;23;19990;-83
2023/01/01 10:16:24;;;;;;;;;;;;;;;;;;6260895;23;20367;-83
2023/01/01 10:18:50;;;;;;;;;;;;;;;;;;6233597;23;19912;-82
2023/01/01 10:21:16;;;;;;;;;;;;;;;;;;6231877;23;19918;-83
2023/01/01 10:23:41;;;;;;;;;;;;;;;;;;6206250;23;19998;-82
2023/01/01 10:26:07;;;;;;;;;;;;;;;;;;6231549;23;19911;-84
2023/01/01 10:28:33;;;;;;;;;;;;;;;;;;6231897;23;19915;-83
2023/01/01 10:30:58;;;;;;;;;;;;;;;;;;6249618;23;19919;-80
2023/01/01 10:33:24;;;;;;;;;;;;;;;;;;6221132;23;19911;-79
2023/01/01 10:35:50;;;;;;;;;;;;;;;;;;6220085;23;19934;-79
2023/01/01 10:38:15;;;;;;;;;;;;;;;;;;6219492;23;19938;-73
2023/01/01 10:40:41;;;;;;;;;;;;;;;;;;6244108;23;19911;-76
2023/01/01 10:43:07;;;;;;;;;;;;;;;;;;6244064;23;19973;-73
2023/01/01 10:45:33;;;;;;;;;;;;;;;;;;6243417;23;20367;-74
2023/01/01 10:47:58;;;;;;;;;;;;;;;;;;6243745;23;19919;-77
2023/01/01 10:50:24;;;;;;;;;;;;;;;;;;6243401;23;20345;-77
2023/01/01 10:52:53;;;;;;;;;;;;;;;;;;6243980;23;19958;-77
2023/01/01 10:55:19;;;;;;;;;;;;;;;;;;6242598;23;19911;-77
2023/01/01 10:57:44;;;;;;;;;;;;;;;;;;6240351;23;19931;-78
2023/01/01 11:00:10;;;;;;;;;;;;;;;;;;6242570;23;20455;-78
2023/01/01 11:02:36;;;;;;;;;;;;;;;;;;6243047;23;19911;-77
2023/01/01 11:05:01;;;;;;;;;;;;;;;;;;6243855;23;19958;-78
2023/01/01 11:07:28;;;;;;;;;;;;;;;;;;6243908;23;19929;-77
2023/01/01 11:09:54;;;;;;;;;;;;;;;;;;6244850;23;20412;-78
2023/01/01 11:12:19;;;;;;;;;;;;;;;;;;6245574;23;19950;-78
2023/01/01 11:14:45;;;;;;;;;;;;;;;;;;6219663;23;19912;-79
2023/01/01 11:17:11;;;;;;;;;;;;;;;;;;6246217;23;19919;-78
2023/01/01 11:19:37;;;;;;;;;;;;;;;;;;6245393;23;19993;-77
2023/01/01 11:22:02;;;;;;;;;;;;;;;;;;6243678;23;19919;-77
2023/01/01 11:24:28;;;;;;;;;;;;;;;;;;6244021;23;19912;-77
2023/01/01 11:26:54;;;;;;;;;;;;;;;;;;6216972;23;20233;-76
2023/01/01 11:29:21;;;;;;;;;;;;;;;;;;6243226;23;19919;-77
2023/01/01 11:31:47;;;;;;;;;;;;;;;;;;6243126;23;19999;-77
2023/01/01 11:34:13;;;;;;;;;;;;;;;;;;6242972;23;19950;-77
2023/01/01 11:36:38;;;;;;;;;;;;;;;;;;6216145;23;19911;-76
2023/01/01 11:39:04;;;;;;;;;;;;;;;;;;6243384;23;20360;-76
2023/01/01 11:41:30;;;;;;;;;;;;;;;;;;6243644;23;20717;-76
2023/01/01 11:43:55;;;;;;;;;;;;;;;;;;6244123;23;19943;-75
2023/01/01 11:46:21;;;;;;;;;;;;;;;;;;6215410;23;19911;-76
2023/01/01 11:48:47;;;;;;;;;;;;;;;;;;6242083;23;19969;-75
2023/01/01 11:51:12;;;;;;;;;;;;;;;;;;6215141;23;20352;-76
2023/01/01 11:53:40;;;;;;;;;;;;;;;;;;6241918;23;19962;-75
2023/01/01 11:56:06;;;;;;;;;;;;;;;;;;6242190;23;19958;-76
2023/01/01 11:58:32;;;;;;;;;;;;;;;;;;6241745;23;20388;-75
2023/01/01 12:00:58;;;;;;;;;;;;;;;;;;6242302;23;19946;-76
2023/01/01 12:03:23;;;;;;;;;;;;;;;;;;6242631;23;20626;-76
2023/01/01 12:05:50;;;;;;;;;;;;;;;;;;6242655;23;20429;-76
2023/01/01 12:08:15;;;;;;;;;;;;;;;;;;6242597;23;19986;-75
2023/01/01 12:10:41;;;;;;;;;;;;;;;;;;6245189;23;20013;-76
2023/01/01 12:13:07;;;;;;;;;;;;;;;;;;6254369;23;19920;-75
2023/01/01 12:15:34;;;;;;;;;;;;;;;;;;6254578;23;19918;-76
2023/01/01 12:17:59;;;;;;;;;;;;;;;;;;6251764;23;19911;-75
2023/01/01 12:20:25;;;;;;;;;;;;;;;;;;6245696;23;20592;-75
2023/01/01 12:22:51;;;;;;;;;;;;;;;;;;6240696;23;20420;-75
2023/01/01 12:25:16;;;;;;;;;;;;;;;;;;6240427;23;20344;-75
2023/01/01 12:27:42;;;;;;;;;;;;;;;;;;6240578;23;19927;-76
2023/01/01 12:30:08;;;;;;;;;;;;;;;;;;6240800;23;19923;-75
2023/01/01 12:32:34;;;;;;;;;;;;;;;;;;6240148;23;20046;-75
2023/01/01 12:34:59;;;;;;;;;;;;;;;;;;6240269;23;20049;-76
2023/01/01 12:37:25;;;;;;;;;;;;;;;;;;6240269;23;19911;-75
2023/01/01 12:39:51;;;;;;;;;;;;;;;;;;6240556;23;19965;-75
2023/01/01 12:42:17;;;;;;;;;;;;;;;;;;6242450;23;19912;-75
2023/01/01 12:44:42;;;;;;;;;;;;;;;;;;6242542;23;19912;-76
2023/01/01 12:47:08;;;;;;;;;;;;;;;;;;6242202;23;19911;-75
2023/01/01 12:49:35;;;;;;;;;;;;;;;;;;6242084;23;20460;-76
2023/01/01 12:52:01;;;;;;;;;;;;;;;;;;6242292;23;19986;-76
2023/01/01 12:54:27;;;;;;;;;;;;;;;;;;6241989;23;19934;-75
2023/01/01 12:56:52;;;;;;;;;;;;;;;;;;6242114;23;20256;-76
2023/01/01 12:59:18;;;;;;;;;;;;;;;;;;6242140;23;19907;-76
2023/01/01 13:01:44;;;;;;;;;;;;;;;;;;6242205;23;19918;-76
2023/01/01 13:04:09;;;;;;;;;;;;;;;;;;6242030;23;19939;-76
2023/01/01 13:06:35;;;;;;;;;;;;;;;;;;6214803;23;19954;-76
2023/01/01 13:09:01;;;;;;;;;;;;;;;;;;6241976;23;19919;-76
2023/01/01 13:11:27;;;;;;;;;;;;;;;;;;6214854;23;19911;-76
2023/01/01 13:13:52;;;;;;;;;;;;;;;;;;6241971;23;19911;-76
2023/01/01 13:16:18;;;;;;;;;;;;;;;;;;6241881;23;20279;-76
2023/01/01 13:18:44;;;;;;;;;;;;;;;;;;6215035;23;19918;-76
2023/01/01 13:21:09;;;;;;;;;;;;;;;;;;6241942;23;19912;-76
2023/01/01 13:23:37;;;;;;;;;;;;;;;;;;6241685;23;19920;-76
2023/01/01 13:26:02;;;;;;;;;;;;;;;;;;6241984;23;19912;-76
2023/01/01 13:28:28;;;;;;;;;;;;;;;;;;6214486;23;19931;-76
2023/01/01 13:30:54;;;;;;;;;;;;;;;;;;6241841;23;20002;-77
2023/01/01 13:33:24;;;;;;;;;;;;;;;;;;6189488;23;19911;-77
2023/01/01 13:35:49;;;;;;;;;;;;;;;;;;6214878;23;20284;-77
2023/01/01 13:38:15;;;;;;;;;;;;;;;;;;6241971;23;19912;-77
2023/01/01 13:40:41;;;;;;;;;;;;;;;;;;6243217;23;19946;-82
2023/01/01 13:43:06;;;;;;;;;;;;;;;;;;6244760;23;19911;-81
2023/01/01 13:45:33;;;;;;;;;;;;;;;;;;6249082;23;20257;-82
2023/01/01 13:47:59;;;;;;;;;;;;;;;;;;6244681;23;19965;-82
2023/01/01 13:50:24;;;;;;;;;;;;;;;;;;6242181;23;19908;-82
2023/01/01 13:52:50;;;;;;;;;;;;;;;;;;6241800;23;19922;-82
2023/01/01 13:55:16;;;;;;;;;;;;;;;;;;6242263;23;19939;-79
2023/01/01 13:57:41;;;;;;;;;;;;;;;;;;6235678;23;20357;-81
2023/01/01 14:00:07;;;;;;;;;;;;;;;;;;6241176;23;20200;-80
2023/01/01 14:02:38;;;;;;;;;;;;;;;;;;6243121;23;19970;-84
2023/01/01 14:05:04;;;;;;;;;;;;;;;;;;6245469;23;20341;-84
2023/01/01 14:07:30;;;;;;;;;;;;;;;;;;6249431;23;19927;-82
2023/01/01 14:09:55;;;;;;;;;;;;;;;;;;6220541;23;19922;-81
2023/01/01 14:12:21;;;;;;;;;;;;;;;;;;6239935;23;19919;-80
2023/01/01 14:14:46;;;;;;;;;;;;;;;;;;6245046;23;19920;-80
2023/01/01 14:17:12;;;;;;;;;;;;;;;;;;6214841;23;19911;-79
2023/01/01 14:19:39;;;;;;;;;;;;;;;;;;6239564;23;20275;-80
2023/01/01 14:22:05;;;;;;;;;;;;;;;;;;6240189;23;19919;-80
2023/01/01 14:24:31;;;;;;;;;;;;;;;;;;6212509;23;19911;-81
2023/01/01 14:26:56;;;;;;;;;;;;;;;;;;6239605;23;19934;-78
2023/01/01 14:29:22;;;;;;;;;;;;;;;;;;6239921;23;19919;-80
2023/01/01 14:31:48;;;;;;;;;;;;;;;;;;6240083;23;19915;-80
2023/01/01 14:34:13;;;;;;;;;;;;;;;;;;6215388;23;19947;-78
2023/01/01 14:36:39;;;;;;;;;;;;;;;;;;6240835;23;20340;-79
2023/01/01 14:39:05;;;;;;;;;;;;;;;;;;6240372;23;19918;-80
2023/01/01 14:41:30;;;;;;;;;;;;;;;;;;6239820;23;19918;-79
2023/01/01 14:43:57;;;;;;;;;;;;;;;;;;6245366;23;19943;-82
2023/01/01 14:46:22;;;;;;;;;;;;;;;;;;6242366;23;19919;-81
2023/01/01 14:48:48;;;;;;;;;;;;;;;;;;6242412;23;19985;-79
2023/01/01 14:51:13;;;;;;;;;;;;;;;;;;6240454;23;19994;-80
2023/01/01 14:53:39;;;;;;;;;;;;;;;;;;6242027;23;19994;-81
2023/01/01 14:56:06;;;;;;;;;;;;;;;;;;6240521;23;19911;-79
2023/01/01 14:58:32;;;;;;;;;;;;;;;;;;6240561;23;19919;-83
2023/01/01 15:00:58;;;;;;;;;;;;;;;;;;6249797;23;19960;-83
2023/01/01 15:03:23;;;;;;;;;;;;;;;;;;6246049;23;19911;-83
2023/01/01 15:05:49;;;;;;;;;;;;;;;;;;6242429;23;19913;-82
2023/01/01 15:08:15;;;;;;;;;;;;;;;;;;6243372;23;19926;-82
2023/01/01 15:10:41;;;;;;;;;;;;;;;;;;6243631;23;19941;-81
2023/01/01 15:13:06;;;;;;;;;;;;;;;;;;6244358;23;19961;-82
2023/01/01 15:15:32;;;;;;;;;;;;;;;;;;6217376;23;19912;-81
2023/01/01 15:17:58;;;;;;;;;;;;;;;;;;6246023;23;20380;-81
2023/01/01 15:20:24;;;;;;;;;;;;;;;;;;6246876;23;20621;-83
2023/01/01 15:22:49;;;;;;;;;;;;;;;;;;6218834;23;20325;-83
2023/01/01 15:25:15;;;;;;;;;;;;;;;;;;6244629;23;19931;-82
2023/01/01 15:27:43;;;;;;;;;;;;;;;;;;6253979;23;19938;-86
2023/01/01 15:30:08;;;;;;;;;;;;;;;;;;6268697;22;19924;-85
2023/01/01 15:32:34;;;;;;;;;;;;;;;;;;6272989;22;19927;-87
2023/01/01 15:34:59;;;;;;;;;;;;;;;;;;6253479;23;19913;-82
2023/01/01 15:37:25;;;;;;;;;;;;;;;;;;6240961;23;19911;-81
2023/01/01 15:39:52;;;;;;;;;;;;;;;;;;6240855;23;19974;-81
2023/01/01 15:42:18;;;;;;;;;;;;;;;;;;6241964;23;20364;-82
2023/01/01 15:44:43;;;;;;;;;;;;;;;;;;6250334;23;19911;-82
2023/01/01 15:47:09;;;;;;;;;;;;;;;;;;6222642;23;19955;-81
2023/01/01 15:49:35;;;;;;;;;;;;;;;;;;6249610;23;19915;-82
2023/01/01 15:52:00;;;;;;;;;;;;;;;;;;6246650;23;19942;-83
2023/01/01 15:54:26;;;;;;;;;;;;;;;;;;6264757;23;19907;-86
2023/01/01 15:56:52;;;;;;;;;;;;;;;;;;6232397;23;19931;-85
2023/01/01 15:59:18;;;;;;;;;;;;;;;;;;6230091;23;19912;-83
2023/01/01 16:01:45;;;;;;;;;;;;;;;;;;6219117;23;19990;-78
2023/01/01 16:04:10;;;;;;;;;;;;;;;;;;6213968;23;19981;-83
2023/01/01 16:06:36;;;;;;;;;;;;;;;;;;6225585;23;20458;-82
2023/01/01 16:09:01;;;;;;;;;;;;;;;;;;6212726;23;19920;-80
2023/01/01 16:11:27;;;;;;;;;;;;;;;;;;6222648;23;19912;-85
2023/01/01 16:13:53;;;;;;;;;;;;;;;;;;6236059;23;19956;-84
2023/01/01 16:16:19;;;;;;;;;;;;;;;;;;6226408;23;19912;-85
2023/01/01 16:29:28;;;;;;;;;;;;;;;;;;6244127;23;19923;-82
2023/01/01 16:31:54;;;;;;;;;;;;;;;;;;6258034;23;19895;-83
2023/01/01 16:34:20;;;;;;;;;;;;;;;;;;6261498;23;19958;-83
2023/01/01 16:36:47;;;;;;;;;;;;;;;;;;6221055;23;19918;-83
2023/01/01 16:39:13;;;;;;;;;;;;;;;;;;6223798;23;19911;-82
2023/01/01 16:41:38;;;;;;;;;;;;;;;;;;6242397;23;19998;-81
2023/01/01 16:44:04;;;;;;;;;;;;;;;;;;6244897;23;19912;-82
2023/01/01 16:46:30;;;;;;;;;;;;;;;;;;6251467;23;19912;-79
2023/01/01 16:48:56;;;;;;;;;;;;;;;;;;6243385;23;19920;-79
2023/01/01 16:51:22;;;;;;;;;;;;;;;;;;6241150;23;20297;-75